Almont, Michigan
Current Conditions -  °F | °C
As of 9:34 AM on Friday 24 Oct 2014 (Local Time) from KD95 Reporting Station
Haze Haze  
Wind Chill: 37°   Ceiling: 6000
Heat Index: 37°   Visibility: 5mi
Dew Point: 36°   Wind: 0mph
Humidity: 97%   Direction: NA
Pressure: 30.07"   Gusts: NA
Location:  42.92°N, 83.04°W
Report Text: KD95 241334Z AUTO 00000KT 5SM BR BKN060 OVC080 03/02 A3007 RMK AO2 T00280024
Loading
Personal Weather Stations






























Interactive Weather Map
Tropical Storm Tracking
New forecast layout! Learn more

10-Day Weather Forecast

Advertisements
Track Severe Weather on mobile